createdAt,value
2022-09-30T00:01:23.092Z,46.00
2022-09-30T00:03:50.073Z,46.57
2022-09-30T00:06:17.029Z,48.97
2022-09-30T00:08:43.824Z,52.03
2022-09-30T00:11:20.166Z,51.03
2022-09-30T00:13:50.517Z,51.73
2022-09-30T00:16:19.028Z,50.67
2022-09-30T00:18:45.817Z,51.33
2022-09-30T00:21:16.037Z,51.10
2022-09-30T00:23:44.130Z,52.30
2022-09-30T00:26:17.022Z,51.57
2022-09-30T00:28:46.104Z,50.47
2022-09-30T00:31:15.674Z,45.80
2022-09-30T00:33:43.485Z,48.17
2022-09-30T00:36:11.184Z,47.33
2022-09-30T00:38:38.037Z,48.77
2022-09-30T00:41:04.786Z,46.37
2022-09-30T00:43:51.645Z,46.57
2022-09-30T00:46:39.783Z,47.57
2022-09-30T00:49:24.266Z,47.47
2022-09-30T00:51:56.319Z,47.33
2022-09-30T00:54:28.515Z,46.20
2022-09-30T00:57:00.371Z,44.80
2022-09-30T00:59:34.914Z,48.70
2022-09-30T01:02:02.237Z,43.80
2022-09-30T01:04:32.184Z,43.87
2022-09-30T01:07:04.293Z,44.97
2022-09-30T01:09:34.476Z,45.70
2022-09-30T01:12:06.355Z,45.33
2022-09-30T01:14:33.405Z,45.03
2022-09-30T01:17:20.713Z,41.07
2022-09-30T01:20:29.305Z,41.30
2022-09-30T01:23:14.532Z,39.17
2022-09-30T01:26:17.301Z,37.00
2022-09-30T01:29:02.280Z,37.00
2022-09-30T01:31:50.431Z,37.07
2022-09-30T01:34:52.421Z,35.03
2022-09-30T01:37:51.219Z,36.83
2022-09-30T01:40:31.045Z,34.73
2022-09-30T01:43:16.604Z,37.20
2022-09-30T01:45:51.401Z,39.07
2022-09-30T01:48:26.260Z,37.87
2022-09-30T01:51:12.389Z,40.57
2022-09-30T01:53:54.987Z,37.70
2022-09-30T01:56:35.351Z,38.60
2022-09-30T01:59:11.440Z,37.60
2022-09-30T02:01:49.690Z,39.40
2022-09-30T02:04:29.211Z,37.57
2022-09-30T02:07:02.210Z,36.20
2022-09-30T02:09:36.536Z,38.90
2022-09-30T02:12:06.929Z,35.60
2022-09-30T02:14:44.902Z,37.17
2022-09-30T02:17:23.444Z,36.83
2022-09-30T02:20:14.137Z,37.93
2022-09-30T02:22:52.193Z,37.10
2022-09-30T02:25:27.293Z,34.90
2022-09-30T02:27:59.170Z,34.30
2022-09-30T02:30:26.209Z,35.00
2022-09-30T02:32:59.090Z,34.53
2022-09-30T02:35:32.453Z,33.90
2022-09-30T02:38:05.692Z,33.67
2022-09-30T02:40:53.868Z,37.50
2022-09-30T02:43:21.350Z,34.60
2022-09-30T02:46:03.296Z,36.40
2022-09-30T02:48:43.992Z,34.20
2022-09-30T02:51:15.691Z,36.40
2022-09-30T02:54:05.912Z,36.47
2022-09-30T02:56:54.353Z,37.60
2022-09-30T02:59:22.813Z,37.70
2022-09-30T03:01:49.934Z,36.53
2022-09-30T03:04:22.945Z,37.17
2022-09-30T03:06:50.263Z,37.77
2022-09-30T03:09:17.562Z,36.77
2022-09-30T03:11:45.232Z,36.13
2022-09-30T03:14:20.529Z,36.73
2022-09-30T03:17:09.313Z,35.90
2022-09-30T03:20:05.526Z,37.80
2022-09-30T03:22:59.099Z,35.30
2022-09-30T03:25:37.862Z,34.90
2022-09-30T03:28:15.344Z,35.33
2022-09-30T03:31:17.094Z,34.50
2022-09-30T03:33:52.309Z,32.20
2022-09-30T03:36:31.553Z,34.50
2022-09-30T03:39:13.274Z,33.07
2022-09-30T03:41:58.120Z,32.63
2022-09-30T03:44:46.604Z,31.50
2022-09-30T03:47:16.683Z,32.03
2022-09-30T03:49:53.141Z,32.00
2022-09-30T03:52:20.392Z,32.43
2022-09-30T03:54:56.494Z,31.70
2022-09-30T03:57:23.221Z,32.77
2022-09-30T03:59:50.322Z,31.00
2022-09-30T04:02:17.035Z,31.17
2022-09-30T04:04:43.901Z,32.37
2022-09-30T04:07:11.344Z,31.57
2022-09-30T04:09:38.742Z,31.17
2022-09-30T04:12:06.205Z,28.43
2022-09-30T04:14:33.743Z,29.93
2022-09-30T04:17:03.600Z,30.53
2022-09-30T04:19:30.939Z,29.50
2022-09-30T04:21:57.661Z,32.80
2022-09-30T04:24:25.023Z,33.33
2022-09-30T04:26:51.952Z,34.30
2022-09-30T04:29:18.661Z,34.73
2022-09-30T04:31:45.447Z,35.13
2022-09-30T04:34:12.338Z,32.47
2022-09-30T04:36:39.339Z,33.37
2022-09-30T04:39:06.008Z,32.80
2022-09-30T04:41:34.245Z,34.20
2022-09-30T04:44:06.153Z,40.17
2022-09-30T04:46:36.881Z,38.93
2022-09-30T04:49:08.725Z,38.37
2022-09-30T04:51:36.441Z,37.50
2022-09-30T04:54:03.366Z,37.27
2022-09-30T04:56:30.190Z,35.10
2022-09-30T04:58:57.407Z,35.33
2022-09-30T05:01:24.258Z,32.97
2022-09-30T05:03:51.030Z,34.10
2022-09-30T05:06:18.119Z,30.33
2022-09-30T05:08:46.309Z,31.80
2022-09-30T05:11:21.364Z,31.57
2022-09-30T05:13:49.065Z,31.60
2022-09-30T05:16:16.274Z,30.77
2022-09-30T05:18:45.923Z,32.67
2022-09-30T05:21:14.955Z,33.30
2022-09-30T05:23:41.646Z,32.80
2022-09-30T05:26:11.955Z,34.43
2022-09-30T05:28:39.784Z,35.23
2022-09-30T05:31:06.734Z,35.57
2022-09-30T05:33:35.782Z,37.57
2022-09-30T05:36:05.664Z,87.33
2022-09-30T05:38:32.996Z,102.17
2022-09-30T05:41:11.348Z,85.60
2022-09-30T05:43:42.566Z,76.40
2022-09-30T05:46:09.413Z,66.73
2022-09-30T05:48:36.320Z,69.27
2022-09-30T05:51:03.821Z,70.57
2022-09-30T05:53:32.251Z,70.13
2022-09-30T05:55:59.636Z,54.43
2022-09-30T05:58:27.631Z,56.07
2022-09-30T06:00:54.603Z,50.97
2022-09-30T06:03:21.472Z,48.43
2022-09-30T06:05:48.411Z,44.40
2022-09-30T06:08:15.793Z,39.30
2022-09-30T06:10:44.149Z,43.53
2022-09-30T06:13:11.747Z,40.27
2022-09-30T06:15:41.303Z,41.83
2022-09-30T06:18:08.618Z,44.73
2022-09-30T06:20:35.787Z,43.73
2022-09-30T06:23:03.289Z,42.97
2022-09-30T06:25:31.248Z,46.07
2022-09-30T06:27:58.484Z,44.70
2022-09-30T06:30:25.898Z,43.93
2022-09-30T06:32:56.053Z,43.37
2022-09-30T06:35:24.819Z,42.63
2022-09-30T06:37:52.380Z,41.93
2022-09-30T06:40:21.238Z,41.77
2022-09-30T06:42:48.704Z,41.87
2022-09-30T06:45:27.807Z,40.13
2022-09-30T06:48:02.368Z,40.83
2022-09-30T06:50:33.214Z,46.20
2022-09-30T06:53:06.318Z,42.07
2022-09-30T06:55:33.989Z,38.20
2022-09-30T06:58:00.720Z,43.13
2022-09-30T07:00:28.689Z,42.60
2022-09-30T07:02:56.736Z,37.13
2022-09-30T07:05:25.715Z,36.57
2022-09-30T07:07:53.780Z,36.63
2022-09-30T07:10:21.216Z,37.90
2022-09-30T07:12:54.416Z,36.10
2022-09-30T07:15:23.288Z,35.87
2022-09-30T07:17:56.884Z,38.53
2022-09-30T07:20:24.125Z,38.83
2022-09-30T07:22:51.420Z,37.77
2022-09-30T07:25:18.783Z,37.50
2022-09-30T07:27:46.805Z,36.47
2022-09-30T07:30:22.774Z,36.13
2022-09-30T07:32:53.536Z,33.17
2022-09-30T07:35:20.769Z,36.17
2022-09-30T07:37:47.722Z,33.17
2022-09-30T07:40:15.265Z,33.47
2022-09-30T07:42:45.836Z,33.80
2022-09-30T07:45:17.064Z,32.73
2022-09-30T07:47:43.839Z,33.83
2022-09-30T07:50:10.976Z,33.80
2022-09-30T07:52:37.807Z,34.30
2022-09-30T07:55:04.971Z,33.10
2022-09-30T07:57:31.661Z,32.07
2022-09-30T07:59:58.634Z,31.97
2022-09-30T08:02:25.383Z,32.97
2022-09-30T08:04:52.153Z,33.90
2022-09-30T08:07:19.575Z,33.97
2022-09-30T08:09:46.442Z,37.47
2022-09-30T08:12:13.269Z,45.33
2022-09-30T08:14:40.093Z,50.23
2022-09-30T08:17:06.933Z,35.37
2022-09-30T08:19:34.056Z,31.43
2022-09-30T08:24:32.998Z,28.43
2022-09-30T08:26:59.834Z,29.10
2022-09-30T08:29:53.335Z,29.10
2022-09-30T08:32:13.851Z,27.00
2022-09-30T08:34:40.615Z,28.63
2022-09-30T08:37:09.547Z,27.17
2022-09-30T08:39:37.751Z,25.27
2022-09-30T08:42:36.801Z,22.17
2022-09-30T08:45:26.507Z,23.07
2022-09-30T08:48:13.781Z,22.97
2022-09-30T08:50:43.289Z,19.87
2022-09-30T08:53:15.509Z,18.67
2022-09-30T08:55:45.292Z,16.23
2022-09-30T08:58:26.983Z,15.23
2022-09-30T09:01:17.695Z,15.40
2022-09-30T09:03:45.905Z,15.20
2022-09-30T09:06:27.425Z,16.23
2022-09-30T09:09:32.759Z,14.40
2022-09-30T09:12:15.682Z,13.43
2022-09-30T09:14:50.664Z,13.97
2022-09-30T09:18:21.395Z,15.17
2022-09-30T09:20:53.167Z,15.80
2022-09-30T09:23:20.531Z,14.03
2022-09-30T09:25:52.978Z,16.37
2022-09-30T09:28:44.848Z,19.03
2022-09-30T09:31:17.745Z,16.73
2022-09-30T09:33:44.678Z,14.52
2022-09-30T09:36:16.919Z,13.32
2022-09-30T09:38:58.878Z,16.13
2022-09-30T09:41:34.215Z,24.52
2022-09-30T09:44:01.144Z,16.80
2022-09-30T09:47:04.867Z,14.00
2022-09-30T09:49:37.155Z,13.02
2022-09-30T09:52:12.698Z,15.27
2022-09-30T09:54:45.308Z,14.57
2022-09-30T09:57:15.765Z,15.70
2022-09-30T10:00:24.638Z,15.27
2022-09-30T10:03:01.986Z,16.77
2022-09-30T10:05:30.589Z,12.48
2022-09-30T10:08:18.953Z,12.30
2022-09-30T10:10:52.443Z,10.85
2022-09-30T10:13:25.302Z,16.63
2022-09-30T10:15:57.581Z,15.30
2022-09-30T10:18:35.863Z,11.70
2022-09-30T10:21:18.848Z,12.90
2022-09-30T10:23:45.585Z,12.40
2022-09-30T10:26:15.322Z,12.68
2022-09-30T10:28:46.960Z,12.02
2022-09-30T10:31:38.136Z,12.57
2022-09-30T10:34:23.694Z,11.63
2022-09-30T10:36:51.632Z,10.90
2022-09-30T10:39:26.869Z,11.68
2022-09-30T10:42:26.649Z,13.05
2022-09-30T10:45:16.492Z,12.32
2022-09-30T10:47:46.323Z,13.98
2022-09-30T10:50:17.284Z,14.20
2022-09-30T10:53:20.693Z,11.45
2022-09-30T10:55:47.566Z,10.70
2022-09-30T10:58:43.947Z,9.98
2022-09-30T11:01:18.429Z,8.73
2022-09-30T11:04:14.483Z,7.45
2022-09-30T11:06:42.683Z,7.65
2022-09-30T11:09:19.423Z,7.30
2022-09-30T11:11:53.227Z,7.18
2022-09-30T11:14:41.981Z,7.32
2022-09-30T11:17:28.363Z,6.43
2022-09-30T11:20:11.818Z,5.75
2022-09-30T11:23:12.688Z,4.35
2022-09-30T11:25:48.453Z,6.13
2022-09-30T11:28:25.396Z,6.28
2022-09-30T11:30:56.942Z,6.07
2022-09-30T11:33:32.683Z,6.88
2022-09-30T11:36:08.193Z,9.32
2022-09-30T11:38:44.568Z,8.55
2022-09-30T11:41:36.536Z,7.63
2022-09-30T11:44:18.541Z,7.68
2022-09-30T11:47:17.168Z,9.07
2022-09-30T11:49:56.425Z,9.32
2022-09-30T11:52:44.678Z,8.25
2022-09-30T11:55:31.994Z,9.15
2022-09-30T11:58:29.033Z,14.48
2022-09-30T12:01:15.102Z,9.15
2022-09-30T12:03:46.318Z,7.57
2022-09-30T12:06:27.715Z,6.53
2022-09-30T12:09:01.568Z,7.40
2022-09-30T12:11:40.230Z,8.00
2022-09-30T12:14:16.931Z,5.93
2022-09-30T12:16:46.972Z,4.90
2022-09-30T12:19:15.949Z,3.90
2022-09-30T12:21:50.601Z,4.93
2022-09-30T12:24:44.875Z,5.50
2022-09-30T12:27:21.429Z,3.97
2022-09-30T12:30:15.865Z,3.97
2022-09-30T12:33:07.147Z,4.88
2022-09-30T12:35:52.750Z,5.28
2022-09-30T12:38:27.579Z,5.20
2022-09-30T12:41:05.944Z,6.07
2022-09-30T12:43:57.784Z,7.07
2022-09-30T12:46:49.195Z,9.02
2022-09-30T12:49:23.593Z,6.30
2022-09-30T12:51:55.473Z,8.38
2022-09-30T12:54:27.987Z,8.50
2022-09-30T12:57:00.538Z,7.78
2022-09-30T12:59:31.031Z,10.00
2022-09-30T13:02:00.861Z,9.20
2022-09-30T13:04:35.219Z,9.30
2022-09-30T13:07:01.841Z,9.15
2022-09-30T13:09:36.621Z,10.45
2022-09-30T13:12:03.276Z,9.82
2022-09-30T13:14:32.994Z,9.05
2022-09-30T13:17:08.810Z,10.18
2022-09-30T13:19:42.645Z,10.10
2022-09-30T13:22:18.236Z,11.23
2022-09-30T13:25:12.098Z,10.95
2022-09-30T13:27:51.559Z,11.40
2022-09-30T13:30:18.426Z,10.75
2022-09-30T13:32:48.159Z,17.27
2022-09-30T13:35:35.352Z,23.15
2022-09-30T13:38:21.821Z,11.90
2022-09-30T13:41:02.674Z,10.27
2022-09-30T13:43:43.314Z,10.52
2022-09-30T13:46:43.106Z,9.65
2022-09-30T13:49:19.801Z,8.45
2022-09-30T13:51:46.994Z,8.75
2022-09-30T13:54:31.977Z,9.30
2022-09-30T13:57:00.916Z,9.82
2022-09-30T14:00:04.463Z,11.10
2022-09-30T14:03:03.948Z,11.90
2022-09-30T14:06:02.907Z,11.13
2022-09-30T14:08:38.513Z,12.15
2022-09-30T14:11:05.272Z,11.15
2022-09-30T14:14:08.187Z,11.52
2022-09-30T14:16:48.989Z,12.15
2022-09-30T14:19:51.249Z,11.60
2022-09-30T14:22:20.450Z,11.50
2022-09-30T14:24:50.577Z,10.93
2022-09-30T14:27:22.567Z,10.77
2022-09-30T14:30:03.140Z,9.27
2022-09-30T14:32:43.546Z,9.38
2022-09-30T14:35:17.007Z,10.77
2022-09-30T14:37:48.558Z,11.40
2022-09-30T14:40:30.380Z,10.57
2022-09-30T14:43:06.734Z,11.25
2022-09-30T14:45:38.977Z,11.80
2022-09-30T14:48:16.967Z,11.32
2022-09-30T14:51:05.679Z,11.25
2022-09-30T14:53:35.236Z,11.30
2022-09-30T14:56:05.028Z,10.50
2022-09-30T14:58:42.342Z,11.73
2022-09-30T15:01:15.372Z,10.25
2022-09-30T15:03:49.055Z,11.85
2022-09-30T15:06:22.052Z,12.73
2022-09-30T15:08:50.553Z,14.45
2022-09-30T15:11:24.135Z,13.93
2022-09-30T15:13:58.994Z,13.60
2022-09-30T15:16:27.961Z,14.77
2022-09-30T15:18:55.144Z,14.50
2022-09-30T15:21:24.091Z,13.60
2022-09-30T15:23:57.049Z,13.40
2022-09-30T15:26:25.715Z,11.88
2022-09-30T15:28:52.804Z,13.13
2022-09-30T15:31:29.309Z,14.68
2022-09-30T15:34:03.655Z,14.40
2022-09-30T15:36:30.763Z,14.88
2022-09-30T15:38:57.870Z,14.20
2022-09-30T15:41:24.708Z,14.65
2022-09-30T15:43:53.928Z,14.43
2022-09-30T15:46:27.876Z,14.20
2022-09-30T15:48:59.142Z,14.05
2022-09-30T15:51:30.302Z,13.73
2022-09-30T15:54:00.882Z,13.93
2022-09-30T15:56:34.366Z,13.15
2022-09-30T15:59:11.791Z,14.57
2022-09-30T16:01:50.655Z,14.13
2022-09-30T16:04:17.334Z,18.55
2022-09-30T16:07:11.221Z,18.80
2022-09-30T16:09:40.665Z,18.73
2022-09-30T16:12:09.965Z,17.80
2022-09-30T16:14:48.890Z,17.98
2022-09-30T16:17:19.522Z,19.02
2022-09-30T16:19:57.977Z,17.45
2022-09-30T16:22:49.519Z,16.80
2022-09-30T16:25:26.548Z,12.77
2022-09-30T16:28:01.031Z,11.80
2022-09-30T16:30:32.200Z,11.13
2022-09-30T16:33:02.984Z,11.47
2022-09-30T16:35:29.846Z,11.85
2022-09-30T16:38:06.631Z,13.50
2022-09-30T16:40:35.741Z,15.53
2022-09-30T16:43:07.529Z,25.40
2022-09-30T16:45:35.191Z,36.77
2022-09-30T16:48:05.442Z,67.57
2022-09-30T16:50:40.112Z,91.53
2022-09-30T16:53:06.965Z,110.07
2022-09-30T16:55:33.750Z,125.50
2022-09-30T16:58:00.892Z,110.97
2022-09-30T17:00:29.085Z,99.50
2022-09-30T17:02:55.898Z,101.63
2022-09-30T17:05:25.469Z,110.97
2022-09-30T17:07:57.883Z,116.93
2022-09-30T17:10:30.501Z,108.47
2022-09-30T17:13:02.259Z,89.50
2022-09-30T17:15:30.507Z,82.63
2022-09-30T17:17:58.771Z,72.10
2022-09-30T17:20:26.469Z,71.53
2022-09-30T17:22:53.369Z,75.23
2022-09-30T17:25:20.152Z,67.00
2022-09-30T17:27:54.050Z,63.60
2022-09-30T17:30:21.382Z,64.97
2022-09-30T17:32:48.565Z,64.40
2022-09-30T17:35:15.308Z,65.53
2022-09-30T17:37:45.389Z,71.23
2022-09-30T17:40:32.261Z,71.43
2022-09-30T17:43:08.567Z,77.03
2022-09-30T17:45:36.674Z,73.07
2022-09-30T17:48:04.696Z,68.73
2022-09-30T17:50:31.358Z,66.93
2022-09-30T17:52:58.034Z,57.30
2022-09-30T17:55:24.978Z,54.47
2022-09-30T17:57:53.657Z,58.13
2022-09-30T18:00:20.690Z,62.47
2022-09-30T18:02:48.256Z,70.33
2022-09-30T18:05:15.680Z,69.80
2022-09-30T18:07:43.010Z,79.77
2022-09-30T18:10:09.851Z,74.17
2022-09-30T18:12:36.531Z,68.17
2022-09-30T18:15:03.835Z,66.07
2022-09-30T18:17:31.044Z,61.67
2022-09-30T18:19:57.708Z,54.43
2022-09-30T18:22:24.393Z,48.83
2022-09-30T18:25:09.915Z,46.43
2022-09-30T18:27:36.641Z,42.83
2022-09-30T18:30:05.168Z,44.87
2022-09-30T18:32:32.559Z,44.00
2022-09-30T18:34:59.211Z,48.03
2022-09-30T18:37:28.655Z,48.40
2022-09-30T18:39:55.307Z,49.97
2022-09-30T18:42:21.996Z,51.50
2022-09-30T18:44:48.946Z,47.97
2022-09-30T18:47:17.157Z,46.10
2022-09-30T18:49:47.168Z,48.23
2022-09-30T18:52:13.890Z,47.67
2022-09-30T18:54:40.644Z,46.00
2022-09-30T18:57:07.475Z,44.30
2022-09-30T18:59:35.343Z,45.43
2022-09-30T19:02:04.237Z,44.20
2022-09-30T19:04:31.219Z,45.37
2022-09-30T19:06:58.019Z,43.17
2022-09-30T19:09:26.604Z,41.67
2022-09-30T19:11:53.933Z,38.40
2022-09-30T19:14:21.019Z,41.70
2022-09-30T19:16:47.975Z,46.43
2022-09-30T19:19:15.366Z,51.90
2022-09-30T19:21:42.234Z,53.80
2022-09-30T19:24:09.312Z,54.53
2022-09-30T19:26:37.938Z,52.80
2022-09-30T19:29:07.831Z,52.43
2022-09-30T19:31:36.804Z,53.97
2022-09-30T19:34:04.333Z,57.97
2022-09-30T19:36:39.259Z,56.07
2022-09-30T19:39:12.494Z,53.37
2022-09-30T19:41:39.906Z,51.97
2022-09-30T19:44:06.665Z,56.27
2022-09-30T19:46:33.634Z,58.27
2022-09-30T19:49:00.317Z,58.60
2022-09-30T19:51:31.123Z,59.07
2022-09-30T19:54:06.105Z,58.60
2022-09-30T19:56:35.044Z,52.97
2022-09-30T19:59:02.100Z,52.70
2022-09-30T20:01:30.057Z,53.30
2022-09-30T20:04:00.165Z,53.20
2022-09-30T20:06:28.229Z,53.53
2022-09-30T20:08:59.095Z,55.23
2022-09-30T20:11:29.402Z,70.93
2022-09-30T20:14:16.380Z,72.80
2022-09-30T20:16:43.795Z,69.20
2022-09-30T20:19:11.516Z,66.63
2022-09-30T20:21:38.726Z,65.03
2022-09-30T20:24:05.822Z,64.40
2022-09-30T20:26:34.382Z,64.60
2022-09-30T20:29:01.346Z,63.03
2022-09-30T20:31:28.605Z,59.60
2022-09-30T20:33:57.148Z,57.53
2022-09-30T20:36:25.359Z,55.70
2022-09-30T20:38:59.178Z,53.43
2022-09-30T20:41:35.024Z,53.33
2022-09-30T20:44:03.712Z,53.10
2022-09-30T20:46:33.522Z,56.70
2022-09-30T20:49:01.144Z,55.90
2022-09-30T20:51:29.584Z,50.53
2022-09-30T20:53:58.073Z,44.67
2022-09-30T20:56:26.179Z,38.37
2022-09-30T20:58:54.851Z,36.87
2022-09-30T21:01:23.143Z,34.20
2022-09-30T21:03:52.621Z,35.17
2022-09-30T21:06:24.013Z,35.27
2022-09-30T21:08:51.865Z,37.67
2022-09-30T21:11:19.347Z,37.10
2022-09-30T21:13:48.547Z,36.57
2022-09-30T21:16:17.186Z,32.80
2022-09-30T21:18:44.622Z,30.43
2022-09-30T21:21:13.506Z,29.63
2022-09-30T21:23:40.987Z,28.47
2022-09-30T21:26:15.955Z,26.77
2022-09-30T21:28:46.812Z,26.40
2022-09-30T21:31:27.669Z,25.23
2022-09-30T21:33:58.304Z,24.73
2022-09-30T21:36:26.659Z,26.43
2022-09-30T21:38:54.953Z,28.90
2022-09-30T21:41:22.959Z,29.67
2022-09-30T21:43:49.911Z,29.30
2022-09-30T21:46:18.536Z,29.57
2022-09-30T21:48:46.167Z,27.23
2022-09-30T21:51:13.886Z,28.07
2022-09-30T21:53:41.527Z,29.53
2022-09-30T21:56:11.384Z,31.47
2022-09-30T21:58:38.425Z,31.60
2022-09-30T22:01:06.109Z,34.97
2022-09-30T22:03:38.593Z,33.73
2022-09-30T22:06:08.225Z,36.23
2022-09-30T22:08:40.091Z,47.80
2022-09-30T22:11:12.637Z,45.77
2022-09-30T22:13:42.370Z,42.57
2022-09-30T22:16:09.764Z,39.30
2022-09-30T22:18:37.026Z,37.40
2022-09-30T22:21:10.399Z,37.73
2022-09-30T22:23:37.227Z,38.53
2022-09-30T22:26:18.182Z,35.73
2022-09-30T22:28:46.406Z,39.87
2022-09-30T22:31:19.429Z,34.93
2022-09-30T22:34:06.054Z,34.67
2022-09-30T22:36:51.523Z,38.90
2022-09-30T22:39:18.536Z,34.67
2022-09-30T22:41:45.207Z,36.50
2022-09-30T22:44:12.056Z,43.03
2022-09-30T22:46:39.970Z,48.77
2022-09-30T22:49:07.052Z,50.80
2022-09-30T22:51:34.026Z,52.07
2022-09-30T22:54:03.345Z,56.40
2022-09-30T22:56:30.597Z,56.20
2022-09-30T22:58:58.188Z,60.93
2022-09-30T23:01:25.056Z,56.53
2022-09-30T23:03:54.046Z,42.90
2022-09-30T23:06:22.842Z,36.97
2022-09-30T23:08:50.283Z,36.43
2022-09-30T23:11:18.602Z,35.93
2022-09-30T23:13:46.402Z,35.00
2022-09-30T23:16:14.893Z,34.10
2022-09-30T23:18:41.952Z,32.33
2022-09-30T23:21:11.992Z,33.97
2022-09-30T23:23:42.148Z,37.10
2022-09-30T23:26:12.803Z,41.43
2022-09-30T23:28:40.218Z,43.60
2022-09-30T23:31:10.210Z,38.90
2022-09-30T23:33:39.053Z,42.23
2022-09-30T23:36:07.491Z,36.50
2022-09-30T23:38:34.421Z,32.30
2022-09-30T23:41:01.247Z,28.97
2022-09-30T23:43:30.432Z,27.40
2022-09-30T23:45:58.343Z,27.07
2022-09-30T23:48:25.190Z,27.03
2022-09-30T23:50:53.110Z,28.47
2022-09-30T23:53:22.221Z,27.53
2022-09-30T23:56:00.877Z,25.93
2022-09-30T23:58:27.837Z,27.53
